Time;durP1;ratioP1;P1;durP2;ratioP2;P2;SDS_P1;SDS_P2;PMS_P1;PMS_P2;Temp;Humidity;BMP_temperature;BMP_pressure;BME280_temperature;BME280_humidity;BME280_pressure;Samples;Min_cycle;Max_cycle;Signal;HPM_P1;HPM_P2
2022/01/25 00:15:47;;;;;;;20.37;17.53;;;;;;;;;;5050012;28;20417;-77
2022/01/25 00:26:38;;;;;;;23.23;19.40;;;;;;;;;;5029928;28;20485;-78
2022/01/25 00:29:08;;;;;;;21.87;19.57;;;;;;;;;;5030209;28;20467;-77
2022/01/25 00:31:36;;;;;;;21.50;18.00;;;;;;;;;;5030449;28;20431;-77
2022/01/25 00:34:03;;;;;;;21.60;19.10;;;;;;;;;;5030276;28;20447;-79
2022/01/25 00:36:32;;;;;;;22.90;17.97;;;;;;;;;;5031566;28;20439;-78
2022/01/25 00:39:00;;;;;;;22.47;19.37;;;;;;;;;;5031469;28;20477;-77
2022/01/25 00:41:27;;;;;;;26.77;19.87;;;;;;;;;;5032994;28;20462;-77
2022/01/25 00:43:55;;;;;;;24.63;19.37;;;;;;;;;;5039810;28;20451;-77
2022/01/25 00:46:23;;;;;;;23.07;20.07;;;;;;;;;;5054791;28;20477;-77
2022/01/25 00:48:53;;;;;;;24.07;19.20;;;;;;;;;;5067440;28;20472;-76
2022/01/25 00:51:57;;;;;;;23.00;20.03;;;;;;;;;;5080941;28;20442;-76
2022/01/25 00:54:28;;;;;;;25.23;19.90;;;;;;;;;;5081818;28;20512;-77
2022/01/25 00:56:55;;;;;;;22.03;18.73;;;;;;;;;;5082578;28;20488;-76
2022/01/25 00:59:23;;;;;;;27.43;20.20;;;;;;;;;;5082118;28;20469;-77
2022/01/25 01:01:51;;;;;;;22.77;19.27;;;;;;;;;;5074775;28;20457;-78
2022/01/25 01:04:18;;;;;;;23.77;20.23;;;;;;;;;;5070779;28;20475;-77
2022/01/25 01:06:46;;;;;;;21.57;18.43;;;;;;;;;;5070555;28;20484;-77
2022/01/25 01:09:14;;;;;;;23.40;20.90;;;;;;;;;;5069935;28;20473;-76
2022/01/25 01:11:49;;;;;;;23.60;19.97;;;;;;;;;;5070270;28;20959;-78
2022/01/25 01:14:21;;;;;;;27.70;19.97;;;;;;;;;;5070038;28;20445;-78
2022/01/25 01:17:04;;;;;;;23.60;20.03;;;;;;;;;;5070397;28;20433;-77
2022/01/25 01:30:44;;;;;;;28.87;23.10;;;;;;;;;;5073586;28;20494;-77
2022/01/25 01:33:42;;;;;;;31.97;23.00;;;;;;;;;;5073415;28;20436;-77
2022/01/25 01:41:59;;;;;;;28.83;22.40;;;;;;;;;;5073592;28;20529;-78
2022/01/25 01:44:28;;;;;;;30.27;24.70;;;;;;;;;;5073100;28;20428;-78
2022/01/25 01:47:05;;;;;;;31.50;22.60;;;;;;;;;;5073021;28;20476;-76
2022/01/25 01:49:39;;;;;;;34.60;23.40;;;;;;;;;;5073217;28;20849;-78
2022/01/25 01:52:06;;;;;;;28.10;23.50;;;;;;;;;;5073582;28;20430;-77
2022/01/25 01:54:33;;;;;;;30.33;22.50;;;;;;;;;;5072827;28;20441;-77
2022/01/25 01:57:00;;;;;;;28.00;22.63;;;;;;;;;;5073071;28;20471;-77
2022/01/25 01:59:29;;;;;;;29.43;24.33;;;;;;;;;;5072334;28;21035;-78
2022/01/25 02:01:56;;;;;;;27.90;22.33;;;;;;;;;;5072781;28;20488;-77
2022/01/25 02:04:23;;;;;;;29.70;23.50;;;;;;;;;;5072592;28;20479;-77
2022/01/25 02:06:51;;;;;;;28.47;23.37;;;;;;;;;;5072135;28;20468;-77
2022/01/25 02:09:18;;;;;;;32.80;22.53;;;;;;;;;;5072524;28;20477;-77
2022/01/25 02:11:45;;;;;;;27.27;23.20;;;;;;;;;;5072473;28;20933;-77
2022/01/25 02:14:15;;;;;;;27.10;23.30;;;;;;;;;;5072108;28;20448;-78
2022/01/25 02:16:59;;;;;;;29.17;22.67;;;;;;;;;;5072356;28;20441;-78
2022/01/25 02:22:27;;;;;;;31.27;25.23;;;;;;;;;;5072267;28;20400;-77
2022/01/25 02:24:54;;;;;;;28.90;24.20;;;;;;;;;;5072282;28;21044;-77
2022/01/25 02:27:21;;;;;;;29.27;24.17;;;;;;;;;;5072042;28;20473;-76
2022/01/25 02:29:48;;;;;;;27.83;23.30;;;;;;;;;;5072589;28;20507;-77
2022/01/25 02:32:16;;;;;;;27.70;22.70;;;;;;;;;;5072273;28;21307;-78
2022/01/25 02:34:43;;;;;;;31.20;23.57;;;;;;;;;;5071899;28;20440;-77
2022/01/25 02:37:11;;;;;;;27.07;24.17;;;;;;;;;;5071416;28;20453;-78
2022/01/25 02:39:42;;;;;;;31.57;23.50;;;;;;;;;;5072243;28;20853;-78
2022/01/25 02:42:10;;;;;;;27.20;22.57;;;;;;;;;;5071830;28;20437;-77
2022/01/25 02:44:38;;;;;;;33.70;23.33;;;;;;;;;;5071404;28;20489;-77
2022/01/25 02:49:50;;;;;;;29.47;24.17;;;;;;;;;;5072009;28;20424;-77
2022/01/25 02:52:17;;;;;;;30.13;24.23;;;;;;;;;;5071635;28;20452;-76
2022/01/25 02:54:46;;;;;;;30.17;24.73;;;;;;;;;;5071706;28;20445;-77
2022/01/25 02:57:13;;;;;;;30.07;22.07;;;;;;;;;;5071955;28;20441;-78
2022/01/25 02:59:40;;;;;;;31.13;23.37;;;;;;;;;;5071802;28;20560;-78
2022/01/25 03:02:07;;;;;;;28.90;23.30;;;;;;;;;;5071541;28;20453;-78
2022/01/25 03:04:34;;;;;;;29.83;23.30;;;;;;;;;;5071353;28;20448;-78
2022/01/25 03:07:01;;;;;;;30.20;22.80;;;;;;;;;;5071229;28;20481;-77
2022/01/25 03:09:28;;;;;;;32.47;24.97;;;;;;;;;;5070870;28;20995;-78
2022/01/25 03:11:57;;;;;;;30.90;23.17;;;;;;;;;;5071220;28;20445;-77
2022/01/25 03:14:28;;;;;;;31.47;23.80;;;;;;;;;;5071025;28;20445;-77
2022/01/25 03:17:08;;;;;;;31.10;24.33;;;;;;;;;;5071469;28;20441;-78
2022/01/25 03:19:48;;;;;;;31.20;24.03;;;;;;;;;;5071161;28;20469;-77
2022/01/25 03:22:19;;;;;;;30.30;24.17;;;;;;;;;;5071063;28;20448;-77
2022/01/25 03:24:46;;;;;;;33.17;24.50;;;;;;;;;;5070553;28;20438;-78
2022/01/25 03:27:15;;;;;;;30.23;23.90;;;;;;;;;;5071331;28;20465;-77
2022/01/25 03:29:42;;;;;;;28.80;23.47;;;;;;;;;;5070866;28;20476;-77
2022/01/25 03:32:09;;;;;;;30.00;23.70;;;;;;;;;;5071084;28;20491;-77
2022/01/25 03:34:36;;;;;;;32.67;25.23;;;;;;;;;;5070917;28;20475;-77
2022/01/25 03:37:03;;;;;;;33.73;24.90;;;;;;;;;;5070906;28;20860;-78
2022/01/25 03:39:30;;;;;;;32.17;24.50;;;;;;;;;;5070572;28;20449;-77
2022/01/25 03:41:57;;;;;;;38.50;27.60;;;;;;;;;;5070902;28;20507;-77
2022/01/25 03:44:26;;;;;;;31.20;23.30;;;;;;;;;;5070450;28;20910;-77
2022/01/25 03:47:03;;;;;;;32.73;23.83;;;;;;;;;;5069921;28;20476;-77
2022/01/25 03:49:49;;;;;;;31.27;22.20;;;;;;;;;;5069807;28;20477;-77
2022/01/25 03:52:19;;;;;;;32.43;23.53;;;;;;;;;;5070582;28;20452;-76
2022/01/25 03:54:48;;;;;;;31.57;23.40;;;;;;;;;;5070411;28;20456;-76
2022/01/25 03:57:15;;;;;;;38.10;25.00;;;;;;;;;;5070515;28;20471;-76
2022/01/25 03:59:43;;;;;;;29.70;23.10;;;;;;;;;;5070045;28;20988;-77
2022/01/25 04:02:11;;;;;;;33.33;25.20;;;;;;;;;;5070163;28;20441;-77
2022/01/25 04:04:38;;;;;;;33.23;24.90;;;;;;;;;;5069893;28;20932;-77
2022/01/25 04:07:09;;;;;;;34.20;24.60;;;;;;;;;;5070914;28;20578;-77
2022/01/25 04:09:36;;;;;;;33.33;25.80;;;;;;;;;;5091622;28;20453;-77
2022/01/25 04:12:03;;;;;;;31.17;24.93;;;;;;;;;;5089596;28;20495;-78
2022/01/25 04:14:30;;;;;;;31.43;22.83;;;;;;;;;;5066206;28;20461;-77
2022/01/25 04:17:05;;;;;;;31.77;25.23;;;;;;;;;;5053291;28;20445;-77
2022/01/25 04:19:36;;;;;;;33.90;24.37;;;;;;;;;;5041763;28;21302;-77
2022/01/25 04:25:07;;;;;;;33.63;26.03;;;;;;;;;;5050965;28;20436;-77
2022/01/25 04:27:35;;;;;;;37.60;25.80;;;;;;;;;;5050502;28;20466;-78
2022/01/25 04:30:02;;;;;;;35.17;25.40;;;;;;;;;;5050544;28;20451;-77
2022/01/25 04:32:41;;;;;;;31.30;24.97;;;;;;;;;;5049932;28;20449;-77
2022/01/25 04:35:12;;;;;;;32.77;24.70;;;;;;;;;;5050443;28;20537;-77
2022/01/25 04:49:06;;;;;;;32.53;24.73;;;;;;;;;;5032070;28;21063;-75
2022/01/25 04:51:45;;;;;;;32.57;24.63;;;;;;;;;;5048645;28;20430;-75
2022/01/25 04:54:19;;;;;;;33.57;24.50;;;;;;;;;;5066429;28;20522;-76
2022/01/25 04:56:53;;;;;;;31.30;23.33;;;;;;;;;;5060984;28;20541;-75
2022/01/25 04:59:26;;;;;;;30.43;23.17;;;;;;;;;;5033837;28;20462;-75
2022/01/25 05:02:00;;;;;;;31.03;23.83;;;;;;;;;;5062819;28;20540;-75
2022/01/25 05:04:32;;;;;;;32.10;24.40;;;;;;;;;;5036019;28;20447;-75
2022/01/25 05:07:09;;;;;;;29.77;22.30;;;;;;;;;;5043459;28;20465;-75
2022/01/25 05:09:37;;;;;;;31.27;24.20;;;;;;;;;;5076749;28;20472;-74
2022/01/25 05:12:05;;;;;;;32.97;24.50;;;;;;;;;;5073852;28;20944;-75
2022/01/25 05:14:35;;;;;;;33.13;24.67;;;;;;;;;;5066657;28;21002;-75
2022/01/25 05:17:05;;;;;;;30.20;22.50;;;;;;;;;;5076024;28;20429;-75
2022/01/25 05:22:26;;;;;;;30.47;24.53;;;;;;;;;;5075263;28;20467;-75
2022/01/25 05:24:53;;;;;;;33.93;25.97;;;;;;;;;;5075435;28;20480;-75
2022/01/25 05:27:21;;;;;;;33.40;23.63;;;;;;;;;;5075860;28;20530;-76
2022/01/25 05:29:48;;;;;;;29.80;23.17;;;;;;;;;;5073866;28;20445;-75
2022/01/25 05:32:15;;;;;;;31.87;24.23;;;;;;;;;;5070297;28;20807;-76
2022/01/25 05:34:44;;;;;;;30.27;23.93;;;;;;;;;;5074256;28;20490;-76
2022/01/25 05:37:11;;;;;;;35.63;25.97;;;;;;;;;;5055988;28;20434;-77
2022/01/25 05:39:38;;;;;;;30.43;22.80;;;;;;;;;;5055695;28;20462;-75
2022/01/25 05:45:10;;;;;;;30.30;22.40;;;;;;;;;;5038890;28;20527;-77
2022/01/25 05:47:39;;;;;;;28.63;23.30;;;;;;;;;;5062997;28;20479;-76
2022/01/25 05:50:08;;;;;;;30.07;23.90;;;;;;;;;;5067984;28;20451;-77
2022/01/25 05:52:35;;;;;;;31.23;25.67;;;;;;;;;;5060059;28;20454;-76
2022/01/25 05:55:02;;;;;;;32.70;24.13;;;;;;;;;;5055073;28;21003;-77
2022/01/25 05:57:30;;;;;;;33.47;26.03;;;;;;;;;;5041262;28;20451;-76
2022/01/25 05:59:57;;;;;;;33.60;25.40;;;;;;;;;;5075357;28;20444;-77
2022/01/25 06:02:27;;;;;;;32.47;24.77;;;;;;;;;;5060406;28;20434;-76
2022/01/25 06:04:54;;;;;;;40.60;25.37;;;;;;;;;;5055467;28;20569;-76
2022/01/25 06:07:22;;;;;;;32.97;25.67;;;;;;;;;;5055017;28;20477;-77
2022/01/25 06:09:49;;;;;;;34.00;24.80;;;;;;;;;;5073804;28;20442;-78
2022/01/25 06:12:16;;;;;;;30.60;24.63;;;;;;;;;;5073781;28;20477;-77
2022/01/25 06:14:43;;;;;;;35.70;26.33;;;;;;;;;;5074753;28;20453;-76
2022/01/25 06:17:10;;;;;;;37.80;28.43;;;;;;;;;;5074851;28;20524;-77
2022/01/25 06:19:37;;;;;;;36.10;27.30;;;;;;;;;;5075625;28;20484;-77
2022/01/25 06:22:04;;;;;;;32.17;24.67;;;;;;;;;;5071693;28;20430;-77
2022/01/25 06:24:33;;;;;;;30.80;24.50;;;;;;;;;;5054458;28;20438;-76
2022/01/25 06:27:00;;;;;;;35.50;25.60;;;;;;;;;;5054947;28;20473;-76
2022/01/25 06:29:27;;;;;;;33.00;25.10;;;;;;;;;;5057832;28;20474;-76
2022/01/25 06:31:54;;;;;;;31.53;24.80;;;;;;;;;;5058256;28;20501;-77
2022/01/25 06:34:21;;;;;;;32.57;24.77;;;;;;;;;;5057576;28;20441;-76
2022/01/25 06:36:48;;;;;;;34.43;24.37;;;;;;;;;;5058400;28;20491;-76
2022/01/25 06:39:16;;;;;;;31.10;23.90;;;;;;;;;;5055579;28;20458;-77
2022/01/25 06:41:44;;;;;;;48.13;38.13;;;;;;;;;;5055782;28;20447;-77
2022/01/25 06:44:11;;;;;;;72.87;52.40;;;;;;;;;;5055120;28;20445;-77
2022/01/25 06:46:38;;;;;;;56.13;40.20;;;;;;;;;;5055903;28;20996;-77
2022/01/25 06:49:05;;;;;;;40.07;30.20;;;;;;;;;;5054094;28;20980;-77
2022/01/25 06:51:32;;;;;;;31.50;25.53;;;;;;;;;;5054476;28;20442;-78
2022/01/25 06:53:59;;;;;;;33.10;25.47;;;;;;;;;;5054869;28;20426;-76
2022/01/25 06:56:26;;;;;;;35.93;27.13;;;;;;;;;;5054633;28;20511;-77
2022/01/25 06:58:55;;;;;;;37.20;26.53;;;;;;;;;;5054552;28;20462;-77
2022/01/25 07:01:22;;;;;;;36.17;26.30;;;;;;;;;;5054031;28;20460;-77
2022/01/25 07:03:49;;;;;;;37.03;27.00;;;;;;;;;;5053050;28;20492;-78
2022/01/25 07:06:16;;;;;;;35.23;25.40;;;;;;;;;;5054466;28;20442;-77
2022/01/25 07:08:44;;;;;;;35.33;25.77;;;;;;;;;;5054976;28;20485;-77
2022/01/25 07:11:11;;;;;;;37.93;26.30;;;;;;;;;;5053600;28;20454;-78
2022/01/25 07:13:38;;;;;;;37.47;26.20;;;;;;;;;;5053902;28;20446;-76
2022/01/25 07:16:07;;;;;;;33.83;25.03;;;;;;;;;;5054571;28;20434;-77
2022/01/25 07:18:34;;;;;;;41.27;28.37;;;;;;;;;;5054054;28;20458;-77
2022/01/25 07:21:01;;;;;;;32.40;24.13;;;;;;;;;;5054188;28;20437;-77
2022/01/25 07:23:28;;;;;;;32.87;24.43;;;;;;;;;;5052945;28;20453;-76
2022/01/25 07:25:56;;;;;;;33.27;25.63;;;;;;;;;;5052768;28;20454;-76
2022/01/25 07:28:23;;;;;;;34.03;24.60;;;;;;;;;;5053368;28;20486;-77
2022/01/25 07:30:50;;;;;;;34.17;24.60;;;;;;;;;;5054630;28;20450;-77
2022/01/25 07:33:18;;;;;;;37.37;27.17;;;;;;;;;;5052935;28;20457;-78
2022/01/25 07:35:46;;;;;;;38.10;27.53;;;;;;;;;;5053326;28;20454;-78
2022/01/25 07:38:15;;;;;;;37.10;26.80;;;;;;;;;;5052655;28;20537;-76
2022/01/25 07:40:43;;;;;;;35.27;26.73;;;;;;;;;;5053075;28;20577;-77
2022/01/25 07:43:10;;;;;;;41.27;28.00;;;;;;;;;;5053166;28;20814;-77
2022/01/25 07:45:37;;;;;;;40.67;29.17;;;;;;;;;;5053155;28;20446;-77
2022/01/25 07:48:04;;;;;;;39.60;26.67;;;;;;;;;;5052909;28;20486;-76
2022/01/25 07:50:33;;;;;;;35.20;26.40;;;;;;;;;;5053136;28;20492;-77
2022/01/25 07:53:00;;;;;;;39.47;27.40;;;;;;;;;;5052272;28;20802;-78
2022/01/25 07:55:27;;;;;;;41.33;26.90;;;;;;;;;;5052441;28;20929;-78
2022/01/25 07:57:54;;;;;;;35.07;26.90;;;;;;;;;;5052144;28;20523;-77
2022/01/25 08:00:21;;;;;;;38.60;25.50;;;;;;;;;;5052378;28;20454;-77
2022/01/25 08:02:49;;;;;;;34.97;25.27;;;;;;;;;;5051914;28;20477;-76
2022/01/25 08:05:16;;;;;;;36.83;26.43;;;;;;;;;;5052157;28;20458;-76
2022/01/25 08:07:44;;;;;;;36.53;28.50;;;;;;;;;;5051726;28;20468;-77
2022/01/25 08:10:11;;;;;;;36.30;27.60;;;;;;;;;;5051569;28;20496;-77
2022/01/25 08:12:39;;;;;;;42.50;27.40;;;;;;;;;;5051277;28;20450;-77
2022/01/25 08:15:07;;;;;;;40.30;27.80;;;;;;;;;;5051688;28;20438;-76
2022/01/25 08:17:34;;;;;;;37.37;25.40;;;;;;;;;;5054057;28;20978;-77
2022/01/25 08:20:01;;;;;;;39.30;27.77;;;;;;;;;;5051857;28;20453;-76
2022/01/25 08:22:28;;;;;;;36.27;27.00;;;;;;;;;;5051675;28;20450;-78
2022/01/25 08:24:57;;;;;;;38.37;26.53;;;;;;;;;;5051966;28;20454;-77
2022/01/25 08:27:24;;;;;;;31.57;24.67;;;;;;;;;;5052974;28;20966;-77
2022/01/25 08:29:51;;;;;;;32.07;26.70;;;;;;;;;;5052149;28;20573;-78
2022/01/25 08:32:19;;;;;;;33.10;24.77;;;;;;;;;;5052568;28;20457;-78
2022/01/25 08:34:46;;;;;;;33.30;24.70;;;;;;;;;;5051469;28;20484;-78
2022/01/25 08:37:13;;;;;;;31.70;23.90;;;;;;;;;;5052972;28;20868;-76
2022/01/25 08:39:41;;;;;;;35.57;26.77;;;;;;;;;;5052822;28;20457;-77
2022/01/25 08:42:11;;;;;;;32.20;23.90;;;;;;;;;;5052339;28;21104;-77
2022/01/25 08:44:38;;;;;;;31.27;22.97;;;;;;;;;;5052289;28;20458;-76
2022/01/25 08:47:06;;;;;;;31.30;25.33;;;;;;;;;;5052652;28;20495;-78
2022/01/25 08:49:33;;;;;;;32.57;23.87;;;;;;;;;;5052488;28;20520;-76
2022/01/25 08:52:00;;;;;;;28.33;23.50;;;;;;;;;;5052605;28;20450;-77
2022/01/25 08:54:27;;;;;;;31.67;24.43;;;;;;;;;;5052802;28;20445;-77
2022/01/25 08:56:54;;;;;;;29.03;23.47;;;;;;;;;;5053234;28;20480;-77
2022/01/25 08:59:22;;;;;;;31.50;23.87;;;;;;;;;;5052474;28;21015;-76
2022/01/25 09:01:50;;;;;;;34.00;23.93;;;;;;;;;;5053263;28;20439;-77
2022/01/25 09:04:17;;;;;;;28.87;24.77;;;;;;;;;;5052456;28;20500;-78
2022/01/25 09:06:44;;;;;;;27.37;22.63;;;;;;;;;;5052334;28;20452;-78
2022/01/25 09:09:12;;;;;;;29.70;24.33;;;;;;;;;;5053602;28;21009;-76
2022/01/25 09:11:40;;;;;;;31.00;23.70;;;;;;;;;;5053366;28;20490;-77
2022/01/25 09:14:07;;;;;;;33.43;23.50;;;;;;;;;;5052294;28;20948;-78
2022/01/25 09:16:36;;;;;;;31.80;23.77;;;;;;;;;;5052847;28;20497;-77
2022/01/25 09:19:04;;;;;;;27.87;23.10;;;;;;;;;;5052562;28;20606;-76
2022/01/25 09:21:31;;;;;;;31.30;23.33;;;;;;;;;;5052538;28;20447;-78
2022/01/25 09:23:58;;;;;;;34.27;29.57;;;;;;;;;;5054826;28;20441;-77
2022/01/25 09:26:25;;;;;;;30.00;25.23;;;;;;;;;;5055210;28;20462;-77
2022/01/25 09:28:54;;;;;;;31.57;24.60;;;;;;;;;;5054733;28;20492;-78
2022/01/25 09:31:22;;;;;;;25.00;22.30;;;;;;;;;;5055230;28;20491;-77
2022/01/25 09:33:50;;;;;;;27.43;22.30;;;;;;;;;;5055463;28;20434;-78
2022/01/25 09:36:17;;;;;;;30.57;24.17;;;;;;;;;;5055497;28;20469;-77
2022/01/25 09:38:45;;;;;;;29.73;22.30;;;;;;;;;;5054442;28;20462;-77
2022/01/25 09:41:12;;;;;;;29.03;24.00;;;;;;;;;;5051724;28;20465;-77
2022/01/25 09:43:39;;;;;;;26.93;22.70;;;;;;;;;;5051595;28;20484;-78
2022/01/25 09:46:06;;;;;;;29.83;24.57;;;;;;;;;;5053113;28;20454;-77
2022/01/25 09:48:33;;;;;;;26.90;23.50;;;;;;;;;;5055153;28;20484;-78
2022/01/25 09:51:02;;;;;;;30.63;23.90;;;;;;;;;;5055933;28;20496;-76
2022/01/25 09:53:29;;;;;;;29.67;23.50;;;;;;;;;;5055280;28;20465;-78
2022/01/25 09:55:57;;;;;;;30.83;25.10;;;;;;;;;;5054955;28;20449;-77
2022/01/25 09:58:24;;;;;;;29.40;23.30;;;;;;;;;;5055092;28;20523;-77
2022/01/25 10:00:56;;;;;;;30.97;23.63;;;;;;;;;;5054565;28;20504;-77
2022/01/25 10:03:26;;;;;;;28.93;24.20;;;;;;;;;;5055663;28;20442;-77
2022/01/25 10:05:56;;;;;;;33.97;26.50;;;;;;;;;;5055424;28;20433;-77
2022/01/25 10:08:25;;;;;;;31.70;24.53;;;;;;;;;;5054213;28;20539;-77
2022/01/25 10:10:54;;;;;;;29.20;24.53;;;;;;;;;;5054929;28;20474;-77
2022/01/25 10:13:22;;;;;;;31.60;23.67;;;;;;;;;;5054508;28;20442;-78
2022/01/25 10:15:50;;;;;;;27.20;23.67;;;;;;;;;;5054579;28;20485;-77
2022/01/25 10:18:17;;;;;;;28.60;24.00;;;;;;;;;;5055017;28;20458;-78
2022/01/25 10:20:45;;;;;;;28.07;24.00;;;;;;;;;;5054430;28;20499;-77
2022/01/25 10:23:13;;;;;;;33.00;26.10;;;;;;;;;;5054132;28;20458;-77
2022/01/25 10:25:43;;;;;;;28.77;22.40;;;;;;;;;;5054345;28;20480;-78
2022/01/25 10:28:13;;;;;;;27.83;23.60;;;;;;;;;;5054227;28;20465;-77
2022/01/25 10:30:48;;;;;;;32.50;23.97;;;;;;;;;;5054283;28;20942;-77
2022/01/25 10:33:19;;;;;;;28.10;24.47;;;;;;;;;;5053948;28;20449;-77
2022/01/25 10:35:47;;;;;;;30.60;25.37;;;;;;;;;;5054387;28;20450;-78
2022/01/25 10:38:25;;;;;;;31.13;25.27;;;;;;;;;;5054392;28;20458;-78
2022/01/25 10:40:57;;;;;;;33.23;25.20;;;;;;;;;;5054209;28;20860;-77
2022/01/25 10:43:25;;;;;;;29.90;23.10;;;;;;;;;;5053856;28;20454;-78
2022/01/25 10:46:05;;;;;;;29.37;25.10;;;;;;;;;;5053679;28;20495;-78
2022/01/25 10:48:33;;;;;;;29.93;24.80;;;;;;;;;;5054293;28;20472;-77
2022/01/25 10:51:03;;;;;;;30.37;25.80;;;;;;;;;;5053832;28;20445;-77
2022/01/25 10:53:30;;;;;;;30.00;24.63;;;;;;;;;;5053515;28;20450;-77
2022/01/25 10:55:59;;;;;;;28.33;25.00;;;;;;;;;;5053437;28;20438;-77
2022/01/25 10:58:26;;;;;;;31.27;26.50;;;;;;;;;;5052912;28;20825;-78
2022/01/25 11:00:53;;;;;;;29.83;25.80;;;;;;;;;;5053307;28;20461;-79
2022/01/25 11:03:26;;;;;;;27.73;24.63;;;;;;;;;;5053246;28;20824;-78
2022/01/25 11:05:53;;;;;;;31.50;25.53;;;;;;;;;;5053918;28;20446;-78
2022/01/25 11:08:21;;;;;;;35.07;25.03;;;;;;;;;;5053675;28;20458;-78
2022/01/25 11:10:53;;;;;;;30.50;27.20;;;;;;;;;;5053610;28;20438;-77
2022/01/25 11:13:36;;;;;;;28.57;25.43;;;;;;;;;;5053285;28;20465;-79
2022/01/25 11:16:05;;;;;;;28.13;25.13;;;;;;;;;;5053667;28;20454;-78
2022/01/25 11:18:32;;;;;;;29.90;26.40;;;;;;;;;;5053275;28;20493;-78
2022/01/25 11:21:01;;;;;;;27.70;23.77;;;;;;;;;;5053014;28;20457;-78
2022/01/25 11:23:29;;;;;;;28.30;25.20;;;;;;;;;;5052896;28;20445;-78
2022/01/25 11:25:56;;;;;;;29.60;25.93;;;;;;;;;;5053210;28;20453;-78
2022/01/25 11:28:25;;;;;;;33.07;26.37;;;;;;;;;;5053113;28;20558;-78
2022/01/25 11:30:52;;;;;;;33.07;27.27;;;;;;;;;;5053106;28;20532;-77
2022/01/25 11:33:19;;;;;;;31.20;26.30;;;;;;;;;;5053424;28;20495;-77
2022/01/25 11:35:47;;;;;;;30.73;25.83;;;;;;;;;;5052970;28;20445;-77
2022/01/25 11:38:14;;;;;;;31.00;26.43;;;;;;;;;;5053141;28;20496;-77
2022/01/25 11:40:42;;;;;;;32.63;28.37;;;;;;;;;;5052570;28;20552;-78
2022/01/25 11:43:09;;;;;;;33.90;26.27;;;;;;;;;;5052304;28;20450;-78
2022/01/25 11:45:39;;;;;;;30.20;27.07;;;;;;;;;;5052480;28;20549;-78
2022/01/25 11:48:06;;;;;;;28.93;25.97;;;;;;;;;;5052148;28;20462;-78
2022/01/25 11:50:35;;;;;;;28.87;25.80;;;;;;;;;;5051881;28;20486;-77
2022/01/25 11:53:07;;;;;;;30.90;27.57;;;;;;;;;;5052151;28;20449;-77
2022/01/25 11:55:35;;;;;;;29.40;26.33;;;;;;;;;;5052360;28;20446;-77
2022/01/25 11:58:04;;;;;;;28.00;24.80;;;;;;;;;;5052110;28;20465;-78
2022/01/25 12:00:44;;;;;;;31.03;27.67;;;;;;;;;;5052551;28;20478;-77
2022/01/25 12:03:25;;;;;;;31.00;27.17;;;;;;;;;;5052184;28;20451;-77
2022/01/25 12:06:02;;;;;;;31.73;27.87;;;;;;;;;;5052768;28;20430;-77
2022/01/25 12:08:40;;;;;;;33.00;28.67;;;;;;;;;;5052151;28;20466;-77
2022/01/25 12:11:28;;;;;;;34.20;29.90;;;;;;;;;;5053006;28;20445;-77
2022/01/25 12:14:10;;;;;;;39.87;29.60;;;;;;;;;;5053157;28;20446;-78
2022/01/25 12:16:43;;;;;;;35.20;28.47;;;;;;;;;;5052538;28;20434;-78
2022/01/25 12:19:11;;;;;;;33.13;29.50;;;;;;;;;;5052442;28;20496;-78
2022/01/25 12:22:01;;;;;;;35.13;28.70;;;;;;;;;;5051974;28;20469;-78
2022/01/25 12:24:32;;;;;;;35.67;29.97;;;;;;;;;;5052316;28;20533;-79
2022/01/25 12:27:03;;;;;;;34.27;28.80;;;;;;;;;;5052145;28;20450;-79
2022/01/25 12:29:32;;;;;;;33.50;27.73;;;;;;;;;;5051655;28;20561;-77
2022/01/25 12:32:14;;;;;;;32.27;26.03;;;;;;;;;;5051989;28;20488;-78
2022/01/25 12:34:56;;;;;;;33.27;28.03;;;;;;;;;;5053093;28;20561;-77
2022/01/25 12:37:44;;;;;;;34.27;27.80;;;;;;;;;;5056189;28;20457;-78
2022/01/25 12:40:29;;;;;;;34.00;26.50;;;;;;;;;;5068933;28;20430;-79
2022/01/25 12:42:57;;;;;;;37.00;28.53;;;;;;;;;;5074166;28;20432;-78
2022/01/25 12:45:26;;;;;;;36.07;29.60;;;;;;;;;;5073048;28;20434;-77
2022/01/25 12:47:53;;;;;;;30.83;27.27;;;;;;;;;;5074222;28;20449;-77
2022/01/25 12:50:20;;;;;;;33.23;28.87;;;;;;;;;;5075177;28;20481;-78
2022/01/25 12:52:48;;;;;;;36.30;30.33;;;;;;;;;;5074705;28;20438;-79
2022/01/25 12:55:15;;;;;;;34.20;27.50;;;;;;;;;;5076216;28;20430;-78
2022/01/25 12:57:47;;;;;;;38.70;29.80;;;;;;;;;;5075236;28;20490;-78
2022/01/25 13:00:15;;;;;;;39.67;28.70;;;;;;;;;;5061665;28;20426;-78
2022/01/25 13:02:42;;;;;;;34.47;28.97;;;;;;;;;;5052671;28;20860;-78
2022/01/25 13:05:16;;;;;;;36.70;29.77;;;;;;;;;;5054199;28;20438;-78
2022/01/25 13:07:43;;;;;;;39.07;31.73;;;;;;;;;;5052926;28;20565;-79
2022/01/25 13:10:12;;;;;;;39.60;30.77;;;;;;;;;;5053160;28;20489;-78
2022/01/25 13:12:55;;;;;;;35.10;28.43;;;;;;;;;;5053760;28;20450;-78
2022/01/25 13:15:40;;;;;;;37.87;29.30;;;;;;;;;;5059750;28;20839;-77
2022/01/25 13:18:10;;;;;;;35.97;30.57;;;;;;;;;;5062255;28;20500;-78
2022/01/25 13:20:39;;;;;;;41.97;31.23;;;;;;;;;;5066791;28;20484;-77
2022/01/25 13:23:06;;;;;;;38.00;30.07;;;;;;;;;;5075029;28;20446;-78
2022/01/25 13:25:52;;;;;;;42.00;29.83;;;;;;;;;;5074715;28;20454;-78
2022/01/25 13:28:33;;;;;;;34.53;27.77;;;;;;;;;;5077324;28;20458;-77
2022/01/25 13:31:01;;;;;;;33.13;27.30;;;;;;;;;;5073992;28;20479;-77
2022/01/25 13:33:29;;;;;;;37.90;29.27;;;;;;;;;;5069021;28;20448;-78
2022/01/25 13:35:57;;;;;;;37.53;29.30;;;;;;;;;;5079519;28;20474;-77
2022/01/25 13:38:25;;;;;;;38.63;29.10;;;;;;;;;;5079481;28;20473;-79
2022/01/25 13:40:57;;;;;;;37.50;28.27;;;;;;;;;;5079437;28;20951;-77
2022/01/25 13:45:42;;;;;;;44.47;31.00;;;;;;;;;;5079073;28;20430;-78
2022/01/25 13:46:20;;;;;;;35.83;29.23;;;;;;;;;;5079408;28;20473;-78
2022/01/25 13:48:48;;;;;;;40.03;30.30;;;;;;;;;;5078296;28;20466;-77
2022/01/25 13:51:16;;;;;;;39.90;30.33;;;;;;;;;;5076682;28;20504;-77
2022/01/25 13:53:44;;;;;;;44.77;33.40;;;;;;;;;;5074737;28;20444;-77
2022/01/25 13:56:13;;;;;;;42.70;31.97;;;;;;;;;;5076951;28;20454;-78
2022/01/25 13:58:42;;;;;;;40.97;31.77;;;;;;;;;;5065205;28;20480;-77
2022/01/25 14:01:10;;;;;;;43.03;32.50;;;;;;;;;;5062430;28;20468;-77
2022/01/25 14:03:39;;;;;;;44.20;32.40;;;;;;;;;;5070399;28;20457;-77
2022/01/25 14:06:21;;;;;;;39.40;30.23;;;;;;;;;;5070470;28;20439;-77
2022/01/25 14:08:48;;;;;;;39.20;29.00;;;;;;;;;;5063271;28;20458;-76
2022/01/25 14:11:22;;;;;;;45.47;32.47;;;;;;;;;;5060911;28;20543;-76
2022/01/25 14:22:29;;;;;;;41.53;30.57;;;;;;;;;;5056915;28;20422;-77
2022/01/25 14:24:57;;;;;;;39.63;29.83;;;;;;;;;;5055103;28;20937;-78
2022/01/25 14:27:28;;;;;;;43.37;29.70;;;;;;;;;;5055401;28;20547;-77
2022/01/25 14:29:55;;;;;;;41.60;29.73;;;;;;;;;;5056072;28;20469;-77
2022/01/25 14:32:32;;;;;;;48.10;31.33;;;;;;;;;;5068373;28;20456;-78
2022/01/25 14:35:05;;;;;;;43.20;31.07;;;;;;;;;;5073960;28;20437;-78
2022/01/25 14:37:32;;;;;;;43.67;29.17;;;;;;;;;;5077097;28;20475;-77
2022/01/25 14:40:07;;;;;;;40.80;30.73;;;;;;;;;;5076585;28;20442;-78
2022/01/25 14:42:34;;;;;;;42.73;29.77;;;;;;;;;;5074396;28;20441;-77
2022/01/25 14:45:02;;;;;;;43.93;31.70;;;;;;;;;;5068563;28;20448;-77
2022/01/25 14:47:35;;;;;;;47.33;30.47;;;;;;;;;;5068887;28;20454;-78
2022/01/25 14:50:07;;;;;;;39.80;28.93;;;;;;;;;;5077401;28;20475;-78
2022/01/25 14:52:34;;;;;;;46.43;30.33;;;;;;;;;;5078197;28;20510;-78
2022/01/25 14:55:01;;;;;;;42.63;29.67;;;;;;;;;;5078103;28;20440;-77
2022/01/25 14:57:39;;;;;;;45.73;31.70;;;;;;;;;;5078163;28;20438;-77
2022/01/25 15:00:07;;;;;;;43.13;28.17;;;;;;;;;;5077765;28;20450;-78
2022/01/25 15:02:34;;;;;;;46.63;31.37;;;;;;;;;;5076748;28;20446;-78
2022/01/25 15:05:03;;;;;;;48.90;30.70;;;;;;;;;;5072543;28;20454;-76
2022/01/25 15:07:33;;;;;;;46.37;31.43;;;;;;;;;;5076543;28;20450;-78
2022/01/25 15:10:03;;;;;;;47.33;30.73;;;;;;;;;;5076597;28;20464;-76
2022/01/25 15:12:35;;;;;;;50.50;31.97;;;;;;;;;;5074303;28;20499;-78
2022/01/25 15:15:08;;;;;;;53.73;32.10;;;;;;;;;;5074851;28;20469;-77
2022/01/25 15:17:35;;;;;;;49.60;31.90;;;;;;;;;;5072698;28;20445;-78
2022/01/25 15:20:04;;;;;;;49.50;30.57;;;;;;;;;;5069768;28;20435;-78
2022/01/25 15:22:32;;;;;;;49.00;31.60;;;;;;;;;;5071572;28;20432;-77
2022/01/25 15:25:00;;;;;;;47.90;30.13;;;;;;;;;;5068191;28;20461;-77
2022/01/25 15:27:29;;;;;;;51.27;30.97;;;;;;;;;;5063352;28;20478;-77
2022/01/25 15:29:57;;;;;;;49.60;32.20;;;;;;;;;;5064976;28;20466;-77
2022/01/25 15:32:24;;;;;;;53.27;32.00;;;;;;;;;;5061363;28;20466;-77
2022/01/25 15:34:51;;;;;;;47.07;31.00;;;;;;;;;;5060682;28;20458;-77
2022/01/25 15:37:20;;;;;;;53.43;32.50;;;;;;;;;;5057893;28;20438;-78
2022/01/25 15:39:47;;;;;;;53.60;31.77;;;;;;;;;;5064330;28;20501;-76
2022/01/25 15:42:16;;;;;;;48.67;32.20;;;;;;;;;;5069701;28;20443;-79
2022/01/25 15:44:45;;;;;;;51.20;30.97;;;;;;;;;;5065182;28;20500;-78